Time,TemperatureF,DewpointF,PressureIn,WindDirection,WindDirectionDegrees,WindSpeedMPH,WindSpeedGustMPH,Humidity,HourlyPrecipIn,Conditions,Clouds,dailyrainin,SoftwareType,DateUTC
2013-11-23 00:01:00,21.7,17.3,29.45,WSW,247,0.0,0.0,83,0.00,,,0.00,WeatherCatV1.23B16,2013-11-23 09:01:00,
2013-11-23 00:06:00,21.7,17.3,29.45,WSW,247,0.0,0.0,83,0.00,,,0.00,WeatherCatV1.23B16,2013-11-23 09:06:00,
2013-11-23 00:11:00,21.7,17.3,29.45,WSW,247,0.0,0.0,83,0.00,,,0.00,WeatherCatV1.23B16,2013-11-23 09:11:00,
2013-11-23 00:16:00,21.6,17.1,29.45,WSW,247,0.0,0.0,83,0.00,,,0.00,WeatherCatV1.23B16,2013-11-23 09:16:00,
2013-11-23 00:21:00,21.6,17.0,29.45,WSW,247,0.0,0.0,83,0.00,,,0.00,WeatherCatV1.23B16,2013-11-23 09:21:00,
2013-11-23 00:26:00,21.4,17.0,29.45,WSW,247,0.0,0.0,83,0.00,,,0.00,WeatherCatV1.23B16,2013-11-23 09:26:00,
2013-11-23 00:31:00,21.4,17.2,29.45,WSW,247,0.0,0.0,84,0.00,,,0.00,WeatherCatV1.23B16,2013-11-23 09:31:00,
2013-11-23 00:36:00,21.4,17.2,29.45,WSW,247,0.0,0.0,84,0.00,,,0.00,WeatherCatV1.23B16,2013-11-23 09:36:00,
2013-11-23 00:41:00,21.0,16.9,29.46,WSW,247,0.0,0.0,84,0.00,,,0.00,WeatherCatV1.23B16,2013-11-23 09:41:00,
2013-11-23 00:46:00,21.0,16.9,29.46,WSW,247,0.0,0.0,84,0.00,,,0.00,WeatherCatV1.23B16,2013-11-23 09:46:00,
2013-11-23 00:51:00,21.0,16.9,29.46,WSW,247,0.0,0.0,84,0.00,,,0.00,WeatherCatV1.23B16,2013-11-23 09:51:00,
2013-11-23 00:56:00,20.8,16.7,29.46,WSW,247,0.0,0.0,84,0.00,,,0.00,WeatherCatV1.23B16,2013-11-23 09:56:00,
2013-11-23 01:01:00,20.5,16.3,29.46,WSW,247,0.0,0.0,84,0.00,,,0.00,WeatherCatV1.23B16,2013-11-23 10:01:00,
2013-11-23 01:06:00,20.5,16.1,29.45,WSW,247,0.0,0.0,83,0.00,,,0.00,WeatherCatV1.23B16,2013-11-23 10:06:00,
2013-11-23 01:11:00,20.5,16.1,29.45,WSW,247,0.0,0.0,83,0.00,,,0.00,WeatherCatV1.23B16,2013-11-23 10:11:00,
2013-11-23 01:16:00,20.3,16.2,29.45,WSW,247,0.0,0.0,84,0.00,,,0.00,WeatherCatV1.23B16,2013-11-23 10:16:00,
2013-11-23 01:21:00,20.5,16.3,29.45,WSW,247,0.0,0.0,84,0.00,,,0.00,WeatherCatV1.23B16,2013-11-23 10:21:00,
2013-11-23 01:26:00,20.5,16.3,29.46,WSW,247,0.0,0.0,84,0.00,,,0.00,WeatherCatV1.23B16,2013-11-23 10:26:00,
2013-11-23 01:31:00,20.5,16.3,29.45,WSW,247,0.0,0.0,84,0.00,,,0.00,WeatherCatV1.23B16,2013-11-23 10:31:00,
2013-11-23 01:36:00,20.5,16.3,29.46,WSW,247,0.0,0.0,84,0.00,,,0.00,WeatherCatV1.23B16,2013-11-23 10:36:00,
2013-11-23 01:41:00,20.3,16.2,29.46,WSW,247,0.0,0.0,84,0.00,,,0.00,WeatherCatV1.23B16,2013-11-23 10:41:00,
2013-11-23 01:46:00,20.1,16.0,29.46,WSW,247,0.0,0.0,84,0.00,,,0.00,WeatherCatV1.23B16,2013-11-23 10:46:00,
2013-11-23 01:51:00,20.1,16.0,29.46,WSW,247,0.0,0.0,84,0.00,,,0.00,WeatherCatV1.23B16,2013-11-23 10:51:00,
2013-11-23 01:56:00,19.9,15.8,29.46,WSW,247,0.0,0.0,84,0.00,,,0.00,WeatherCatV1.23B16,2013-11-23 10:56:00,
2013-11-23 02:01:00,19.6,15.4,29.46,WSW,247,0.0,0.0,84,0.00,,,0.00,WeatherCatV1.23B16,2013-11-23 11:01:00,
2013-11-23 02:06:00,19.6,15.4,29.47,WSW,247,0.0,0.0,84,0.00,,,0.00,WeatherCatV1.23B16,2013-11-23 11:06:00,
2013-11-23 02:11:00,19.2,15.1,29.47,WSW,247,0.0,0.0,84,0.00,,,0.00,WeatherCatV1.23B16,2013-11-23 11:11:00,
2013-11-23 02:16:00,18.9,14.7,29.47,WSW,247,0.0,0.0,84,0.00,,,0.00,WeatherCatV1.23B16,2013-11-23 11:16:00,
2013-11-23 02:21:00,18.5,14.4,29.47,WSW,247,0.0,0.0,84,0.00,,,0.00,WeatherCatV1.23B16,2013-11-23 11:21:00,
2013-11-23 02:26:00,18.3,14.2,29.47,WSW,247,0.0,0.0,84,0.00,,,0.00,WeatherCatV1.23B16,2013-11-23 11:26:00,
2013-11-23 02:31:00,18.1,14.0,29.47,WSW,247,0.0,0.0,84,0.00,,,0.00,WeatherCatV1.23B16,2013-11-23 11:31:00,
2013-11-23 02:36:00,17.8,13.8,29.47,WSW,247,0.0,0.0,84,0.00,,,0.00,WeatherCatV1.23B16,2013-11-23 11:36:00,
2013-11-23 02:41:00,17.4,13.3,29.46,WSW,247,0.0,0.0,84,0.00,,,0.00,WeatherCatV1.23B16,2013-11-23 11:41:00,
2013-11-23 02:46:00,17.4,13.3,29.47,WSW,247,0.0,0.0,84,0.00,,,0.00,WeatherCatV1.23B16,2013-11-23 11:46:00,
2013-11-23 02:51:00,17.2,13.1,29.46,WSW,247,0.0,0.0,84,0.00,,,0.00,WeatherCatV1.23B16,2013-11-23 11:51:00,
2013-11-23 02:56:00,17.2,13.1,29.47,WSW,247,0.0,0.0,84,0.00,,,0.00,WeatherCatV1.23B16,2013-11-23 11:56:00,
2013-11-23 03:01:00,16.9,12.8,29.47,WSW,247,0.0,0.0,84,0.00,,,0.00,WeatherCatV1.23B16,2013-11-23 12:01:00,
2013-11-23 03:06:00,16.9,12.8,29.48,WSW,247,0.0,0.0,84,0.00,,,0.00,WeatherCatV1.23B16,2013-11-23 12:06:00,
2013-11-23 03:11:00,16.9,12.8,29.47,WSW,247,0.0,0.0,84,0.00,,,0.00,WeatherCatV1.23B16,2013-11-23 12:11:00,
2013-11-23 03:16:00,16.7,12.6,29.47,WSW,247,0.0,0.0,84,0.00,,,0.00,WeatherCatV1.23B16,2013-11-23 12:16:00,
2013-11-23 03:21:00,16.5,12.4,29.47,WSW,247,0.0,0.0,84,0.00,,,0.00,WeatherCatV1.23B16,2013-11-23 12:21:00,
2013-11-23 03:26:00,16.5,12.4,29.48,WSW,247,0.0,0.0,84,0.00,,,0.00,WeatherCatV1.23B16,2013-11-23 12:26:00,
2013-11-23 03:31:00,16.3,12.3,29.48,WSW,247,0.0,0.0,84,0.00,,,0.00,WeatherCatV1.23B16,2013-11-23 12:31:00,
2013-11-23 03:36:00,16.3,12.1,29.48,WSW,247,0.0,0.0,84,0.00,,,0.00,WeatherCatV1.23B16,2013-11-23 12:36:00,
2013-11-23 03:41:00,16.0,11.9,29.48,WSW,247,0.0,0.0,84,0.00,,,0.00,WeatherCatV1.23B16,2013-11-23 12:41:00,
2013-11-23 03:46:00,15.8,11.8,29.49,WSW,247,0.0,0.0,84,0.00,,,0.00,WeatherCatV1.23B16,2013-11-23 12:46:00,
2013-11-23 03:51:00,15.6,11.8,29.49,WSW,247,0.0,0.0,84,0.00,,,0.00,WeatherCatV1.23B16,2013-11-23 12:51:00,
2013-11-23 03:56:00,15.6,11.8,29.49,WSW,247,0.0,0.0,85,0.00,,,0.00,WeatherCatV1.23B16,2013-11-23 12:56:00,
2013-11-23 04:01:00,15.6,11.6,29.49,WSW,247,0.0,0.0,84,0.00,,,0.00,WeatherCatV1.23B16,2013-11-23 13:01:00,
2013-11-23 04:06:00,15.6,11.6,29.50,WSW,247,0.0,0.0,84,0.00,,,0.00,WeatherCatV1.23B16,2013-11-23 13:06:00,
2013-11-23 04:11:00,15.6,11.8,29.50,WSW,247,0.0,0.0,85,0.00,,,0.00,WeatherCatV1.23B16,2013-11-23 13:11:00,
2013-11-23 04:16:00,15.6,11.8,29.50,WSW,247,0.0,0.0,85,0.00,,,0.00,WeatherCatV1.23B16,2013-11-23 13:16:00,
2013-11-23 04:21:00,15.6,11.8,29.50,WSW,247,0.0,0.0,85,0.00,,,0.00,WeatherCatV1.23B16,2013-11-23 13:21:00,
2013-11-23 04:26:00,15.6,11.8,29.50,WSW,247,0.0,0.0,85,0.00,,,0.00,WeatherCatV1.23B16,2013-11-23 13:26:00,
2013-11-23 04:31:00,15.6,11.8,29.50,WSW,247,0.0,0.0,85,0.00,,,0.00,WeatherCatV1.23B16,2013-11-23 13:31:00,
2013-11-23 04:36:00,15.6,11.8,29.50,WSW,247,0.0,0.0,85,0.00,,,0.00,WeatherCatV1.23B16,2013-11-23 13:36:00,
2013-11-23 04:41:00,15.6,11.8,29.50,WSW,247,0.0,0.0,85,0.00,,,0.00,WeatherCatV1.23B16,2013-11-23 13:41:00,
2013-11-23 04:46:00,15.6,11.8,29.49,WSW,247,0.0,0.0,85,0.00,,,0.00,WeatherCatV1.23B16,2013-11-23 13:46:00,
2013-11-23 04:51:00,15.6,11.8,29.50,WSW,247,0.0,0.0,85,0.00,,,0.00,WeatherCatV1.23B16,2013-11-23 13:51:00,
2013-11-23 04:56:00,15.6,11.8,29.49,WSW,247,0.0,0.0,85,0.00,,,0.00,WeatherCatV1.23B16,2013-11-23 13:56:00,
2013-11-23 05:01:00,15.6,11.8,29.49,WSW,247,0.0,0.0,85,0.00,,,0.00,WeatherCatV1.23B16,2013-11-23 14:01:00,
2013-11-23 05:06:00,15.6,11.8,29.50,WSW,247,0.0,0.0,85,0.00,,,0.00,WeatherCatV1.23B16,2013-11-23 14:06:00,
2013-11-23 05:11:00,15.6,11.8,29.50,WSW,247,0.0,0.0,85,0.00,,,0.00,WeatherCatV1.23B16,2013-11-23 14:11:00,
2013-11-23 05:16:00,15.6,11.8,29.50,WSW,247,0.0,0.0,85,0.00,,,0.00,WeatherCatV1.23B16,2013-11-23 14:16:00,
2013-11-23 05:21:00,15.4,11.7,29.50,WSW,247,0.0,0.0,85,0.00,,,0.00,WeatherCatV1.23B16,2013-11-23 14:21:00,
2013-11-23 05:26:00,15.3,11.5,29.51,WSW,247,0.0,0.0,85,0.00,,,0.00,WeatherCatV1.23B16,2013-11-23 14:26:00,
2013-11-23 05:31:00,15.3,11.5,29.51,WSW,247,0.0,0.0,85,0.00,,,0.00,WeatherCatV1.23B16,2013-11-23 14:31:00,
2013-11-23 05:36:00,15.3,11.5,29.51,WSW,247,0.0,0.0,85,0.00,,,0.00,WeatherCatV1.23B16,2013-11-23 14:36:00,
2013-11-23 05:41:00,15.6,11.8,29.52,WSW,247,0.0,0.0,85,0.00,,,0.00,WeatherCatV1.23B16,2013-11-23 14:41:00,
2013-11-23 05:46:00,15.6,11.8,29.53,WSW,247,0.0,0.0,85,0.00,,,0.00,WeatherCatV1.23B16,2013-11-23 14:46:00,
2013-11-23 05:51:00,15.4,11.7,29.53,WSW,247,0.0,0.0,85,0.00,,,0.00,WeatherCatV1.23B16,2013-11-23 14:51:00,
2013-11-23 05:56:00,15.1,11.3,29.54,WSW,247,0.0,0.0,85,0.00,,,0.00,WeatherCatV1.23B16,2013-11-23 14:56:00,
2013-11-23 06:01:00,14.9,11.2,29.55,WSW,247,0.0,0.0,85,0.00,,,0.00,WeatherCatV1.23B16,2013-11-23 15:01:00,
2013-11-23 06:06:00,14.7,11.0,29.55,WSW,247,0.0,0.0,85,0.00,,,0.00,WeatherCatV1.23B16,2013-11-23 15:06:00,
2013-11-23 06:11:00,15.1,11.3,29.55,WSW,247,0.0,0.0,85,0.00,,,0.00,WeatherCatV1.23B16,2013-11-23 15:11:00,
2013-11-23 06:16:00,15.3,11.5,29.55,WSW,247,0.0,0.0,85,0.00,,,0.00,WeatherCatV1.23B16,2013-11-23 15:16:00,
2013-11-23 06:21:00,15.3,11.5,29.56,WSW,247,0.0,0.0,85,0.00,,,0.00,WeatherCatV1.23B16,2013-11-23 15:21:00,
2013-11-23 06:26:00,15.1,11.3,29.57,WSW,247,0.0,0.0,85,0.00,,,0.00,WeatherCatV1.23B16,2013-11-23 15:26:00,
2013-11-23 06:31:00,15.1,11.3,29.57,WSW,247,0.0,0.0,85,0.00,,,0.00,WeatherCatV1.23B16,2013-11-23 15:31:00,
2013-11-23 06:36:00,15.1,11.3,29.58,WSW,247,0.0,0.0,85,0.00,,,0.00,WeatherCatV1.23B16,2013-11-23 15:36:00,
2013-11-23 06:41:00,15.4,11.7,29.58,WSW,247,0.0,0.0,85,0.00,,,0.00,WeatherCatV1.23B16,2013-11-23 15:41:00,
2013-11-23 06:46:00,15.4,11.7,29.59,WSW,247,0.0,0.0,85,0.00,,,0.00,WeatherCatV1.23B16,2013-11-23 15:46:00,
2013-11-23 06:51:00,15.4,11.7,29.59,WSW,247,0.0,0.0,85,0.00,,,0.00,WeatherCatV1.23B16,2013-11-23 15:51:00,
2013-11-23 06:56:00,15.3,11.5,29.60,WSW,247,0.0,0.0,85,0.00,,,0.00,WeatherCatV1.23B16,2013-11-23 15:56:00,
2013-11-23 07:01:00,15.4,11.7,29.60,WSW,247,0.0,0.0,85,0.00,,,0.00,WeatherCatV1.23B16,2013-11-23 16:01:00,
2013-11-23 07:06:00,15.4,11.7,29.61,WSW,247,0.0,0.0,85,0.00,,,0.00,WeatherCatV1.23B16,2013-11-23 16:06:00,
2013-11-23 07:11:00,15.4,11.7,29.61,WSW,247,0.0,0.0,85,0.00,,,0.00,WeatherCatV1.23B16,2013-11-23 16:11:00,
2013-11-23 07:16:00,15.4,11.7,29.62,WSW,247,0.0,0.0,85,0.00,,,0.00,WeatherCatV1.23B16,2013-11-23 16:16:00,
2013-11-23 07:21:00,15.3,11.3,29.61,WSW,247,0.0,0.0,85,0.00,,,0.00,WeatherCatV1.23B16,2013-11-23 16:21:00,
2013-11-23 07:26:00,15.4,11.7,29.61,WSW,247,0.0,0.0,85,0.00,,,0.00,WeatherCatV1.23B16,2013-11-23 16:26:00,
2013-11-23 07:31:00,15.4,11.7,29.62,WSW,247,0.0,0.0,85,0.00,,,0.00,WeatherCatV1.23B16,2013-11-23 16:31:00,
2013-11-23 07:36:00,15.3,11.7,29.62,WSW,247,0.0,0.0,85,0.00,,,0.00,WeatherCatV1.23B16,2013-11-23 16:36:00,
2013-11-23 07:41:00,15.3,11.5,29.63,WSW,247,0.0,0.0,85,0.00,,,0.00,WeatherCatV1.23B16,2013-11-23 16:41:00,
2013-11-23 07:46:00,15.1,11.3,29.63,WSW,247,0.0,0.0,85,0.00,,,0.00,WeatherCatV1.23B16,2013-11-23 16:46:00,
2013-11-23 07:51:00,15.1,11.3,29.63,WSW,247,0.0,0.0,85,0.00,,,0.00,WeatherCatV1.23B16,2013-11-23 16:51:00,
2013-11-23 07:56:00,15.1,11.3,29.64,WSW,247,0.0,0.0,85,0.00,,,0.00,WeatherCatV1.23B16,2013-11-23 16:56:00,
2013-11-23 08:01:00,15.3,11.5,29.64,WSW,247,0.0,0.0,85,0.00,,,0.00,WeatherCatV1.23B16,2013-11-23 17:01:00,
2013-11-23 08:06:00,15.4,11.7,29.64,WSW,247,0.0,0.0,85,0.00,,,0.00,WeatherCatV1.23B16,2013-11-23 17:06:00,
2013-11-23 08:11:00,15.4,11.7,29.65,WSW,247,0.0,0.0,85,0.00,,,0.00,WeatherCatV1.23B16,2013-11-23 17:11:00,
2013-11-23 08:16:00,15.6,11.8,29.65,WSW,247,0.0,0.0,85,0.00,,,0.00,WeatherCatV1.23B16,2013-11-23 17:16:00,
2013-11-23 08:21:00,15.4,11.7,29.65,WSW,247,0.0,0.0,85,0.00,,,0.00,WeatherCatV1.23B16,2013-11-23 17:21:00,
2013-11-23 08:26:00,15.4,11.4,29.65,WSW,247,0.0,0.0,84,0.00,,,0.00,WeatherCatV1.23B16,2013-11-23 17:26:00,
2013-11-23 08:31:00,15.4,11.4,29.66,WSW,247,0.0,0.0,84,0.00,,,0.00,WeatherCatV1.23B16,2013-11-23 17:31:00,
2013-11-23 08:36:00,15.4,11.4,29.66,WSW,247,0.0,0.0,84,0.00,,,0.00,WeatherCatV1.23B16,2013-11-23 17:36:00,
2013-11-23 08:41:00,15.1,11.1,29.66,WSW,247,0.0,0.0,84,0.00,,,0.00,WeatherCatV1.23B16,2013-11-23 17:41:00,
2013-11-23 08:46:00,15.1,11.1,29.67,WSW,247,0.0,0.0,84,0.00,,,0.00,WeatherCatV1.23B16,2013-11-23 17:46:00,
2013-11-23 08:51:00,15.3,11.2,29.67,WSW,247,0.0,0.0,84,0.00,,,0.00,WeatherCatV1.23B16,2013-11-23 17:51:00,
2013-11-23 08:56:00,15.1,11.1,29.67,WSW,247,0.0,0.0,84,0.00,,,0.00,WeatherCatV1.23B16,2013-11-23 17:56:00,
2013-11-23 09:01:00,15.1,10.8,29.67,WSW,247,0.0,0.0,83,0.00,,,0.00,WeatherCatV1.23B16,2013-11-23 18:01:00,
2013-11-23 09:06:00,15.1,10.8,29.67,WSW,247,0.0,0.0,83,0.00,,,0.00,WeatherCatV1.23B16,2013-11-23 18:06:00,
2013-11-23 09:11:00,15.1,10.8,29.68,WSW,247,0.0,0.0,83,0.00,,,0.00,WeatherCatV1.23B16,2013-11-23 18:11:00,
2013-11-23 09:16:00,15.1,10.8,29.67,WSW,247,0.0,0.0,83,0.00,,,0.00,WeatherCatV1.23B16,2013-11-23 18:16:00,
2013-11-23 09:21:00,15.3,11.0,29.67,WSW,247,0.0,0.0,83,0.00,,,0.00,WeatherCatV1.23B16,2013-11-23 18:21:00,
2013-11-23 09:26:00,15.1,10.8,29.69,WSW,247,0.0,0.0,83,0.00,,,0.00,WeatherCatV1.23B16,2013-11-23 18:26:00,
2013-11-23 09:31:00,15.1,10.8,29.69,WSW,247,0.0,0.0,83,0.00,,,0.00,WeatherCatV1.23B16,2013-11-23 18:31:00,
2013-11-23 09:36:00,14.9,10.8,29.68,WSW,247,0.0,0.0,83,0.00,,,0.00,WeatherCatV1.23B16,2013-11-23 18:36:00,
2013-11-23 09:41:00,15.4,11.2,29.69,WSW,247,0.0,0.0,83,0.00,,,0.00,WeatherCatV1.23B16,2013-11-23 18:41:00,
2013-11-23 09:46:00,15.6,11.6,29.69,WSW,247,0.0,0.0,84,0.00,,,0.00,WeatherCatV1.23B16,2013-11-23 18:46:00,
2013-11-23 09:51:00,15.8,11.8,29.69,WSW,247,0.0,0.0,84,0.00,,,0.00,WeatherCatV1.23B16,2013-11-23 18:51:00,
2013-11-23 09:56:00,16.0,11.9,29.69,WSW,247,0.0,0.0,84,0.00,,,0.00,WeatherCatV1.23B16,2013-11-23 18:56:00,
2013-11-23 10:01:00,16.3,12.0,29.69,WSW,247,0.0,0.0,83,0.00,,,0.00,WeatherCatV1.23B16,2013-11-23 19:01:00,
2013-11-23 10:06:00,16.7,12.2,29.70,WSW,247,0.0,0.0,83,0.00,,,0.00,WeatherCatV1.23B16,2013-11-23 19:06:00,
2013-11-23 10:11:00,17.2,12.9,29.70,WSW,247,0.0,0.0,83,0.00,,,0.00,WeatherCatV1.23B16,2013-11-23 19:11:00,
2013-11-23 10:16:00,17.4,13.0,29.70,WSW,247,0.0,0.0,83,0.00,,,0.00,WeatherCatV1.23B16,2013-11-23 19:16:00,
2013-11-23 10:21:00,18.0,13.6,29.71,WSW,247,0.0,0.0,83,0.00,,,0.00,WeatherCatV1.23B16,2013-11-23 19:21:00,
2013-11-23 10:26:00,18.3,13.9,29.71,WSW,247,0.0,0.0,83,0.00,,,0.00,WeatherCatV1.23B16,2013-11-23 19:26:00,
2013-11-23 10:31:00,18.5,14.1,29.71,WSW,247,0.0,0.0,83,0.00,,,0.00,WeatherCatV1.23B16,2013-11-23 19:31:00,
2013-11-23 10:36:00,19.0,14.4,29.71,WSW,247,0.0,0.0,82,0.00,,,0.00,WeatherCatV1.23B16,2013-11-23 19:36:00,
2013-11-23 10:41:00,19.4,14.7,29.72,WSW,247,0.0,0.0,82,0.00,,,0.00,WeatherCatV1.23B16,2013-11-23 19:41:00,
2013-11-23 10:46:00,19.6,14.6,29.72,WSW,247,0.0,0.0,81,0.00,,,0.00,WeatherCatV1.23B16,2013-11-23 19:46:00,
2013-11-23 10:51:00,19.6,14.6,29.72,WSW,247,0.0,0.0,81,0.00,,,0.00,WeatherCatV1.23B16,2013-11-23 19:51:00,
2013-11-23 10:56:00,20.1,14.9,29.73,WSW,247,0.0,0.0,80,0.00,,,0.00,WeatherCatV1.23B16,2013-11-23 19:56:00,
2013-11-23 11:01:00,20.3,15.1,29.73,WSW,247,0.0,0.0,80,0.00,,,0.00,WeatherCatV1.23B16,2013-11-23 20:01:00,
2013-11-23 11:06:00,20.5,15.3,29.73,WSW,247,0.0,0.0,80,0.00,,,0.00,WeatherCatV1.23B16,2013-11-23 20:06:00,
2013-11-23 11:11:00,20.8,15.6,29.72,WSW,247,0.0,0.0,80,0.00,,,0.00,WeatherCatV1.23B16,2013-11-23 20:11:00,
2013-11-23 11:16:00,20.8,15.6,29.73,WSW,247,0.0,0.0,80,0.00,,,0.00,WeatherCatV1.23B16,2013-11-23 20:16:00,
2013-11-23 11:21:00,21.4,16.2,29.73,WSW,247,0.0,0.0,80,0.00,,,0.00,WeatherCatV1.23B16,2013-11-23 20:21:00,
2013-11-23 11:26:00,21.7,16.2,29.73,WSW,247,0.0,0.0,79,0.00,,,0.00,WeatherCatV1.23B16,2013-11-23 20:26:00,
2013-11-23 11:31:00,21.7,15.9,29.74,WSW,247,0.0,0.0,78,0.00,,,0.00,WeatherCatV1.23B16,2013-11-23 20:31:00,
2013-11-23 11:36:00,21.6,15.7,29.74,WSW,247,0.0,0.0,78,0.00,,,0.00,WeatherCatV1.23B16,2013-11-23 20:36:00,
2013-11-23 11:41:00,21.7,15.9,29.74,WSW,247,0.0,0.0,78,0.00,,,0.00,WeatherCatV1.23B16,2013-11-23 20:41:00,
2013-11-23 11:46:00,21.9,16.1,29.74,WSW,247,0.0,0.0,78,0.00,,,0.00,WeatherCatV1.23B16,2013-11-23 20:46:00,
2013-11-23 11:51:00,22.6,16.5,29.75,WSW,247,0.0,0.0,77,0.00,,,0.00,WeatherCatV1.23B16,2013-11-23 20:51:00,
2013-11-23 11:56:00,23.2,16.7,29.75,WSW,247,0.0,0.0,76,0.00,,,0.00,WeatherCatV1.23B16,2013-11-23 20:56:00,
2013-11-23 12:01:00,23.7,17.2,29.75,WSW,247,0.0,0.0,76,0.00,,,0.00,WeatherCatV1.23B16,2013-11-23 21:01:00,
2013-11-23 12:06:00,24.1,17.3,29.75,WSW,247,0.0,0.0,75,0.00,,,0.00,WeatherCatV1.23B16,2013-11-23 21:06:00,
2013-11-23 12:11:00,24.4,17.6,29.76,WSW,247,0.0,0.0,75,0.00,,,0.00,WeatherCatV1.23B16,2013-11-23 21:11:00,
2013-11-23 12:16:00,24.6,17.8,29.75,WSW,247,2.7,2.7,75,0.00,,,0.00,WeatherCatV1.23B16,2013-11-23 21:16:00,
2013-11-23 12:21:00,24.6,17.1,29.75,WSW,247,0.0,0.0,73,0.00,,,0.00,WeatherCatV1.23B16,2013-11-23 21:21:00,
2013-11-23 12:26:00,25.0,17.8,29.76,WSW,247,0.0,0.0,74,0.00,,,0.00,WeatherCatV1.23B16,2013-11-23 21:26:00,
2013-11-23 12:31:00,25.2,18.0,29.76,WSW,247,0.0,0.0,74,0.00,,,0.00,WeatherCatV1.23B16,2013-11-23 21:31:00,
2013-11-23 12:36:00,25.2,17.8,29.76,WSW,247,0.0,0.0,73,0.00,,,0.00,WeatherCatV1.23B16,2013-11-23 21:36:00,
2013-11-23 12:41:00,25.5,18.3,29.76,WSW,247,0.0,0.0,74,0.00,,,0.00,WeatherCatV1.23B16,2013-11-23 21:41:00,
2013-11-23 12:46:00,25.5,18.3,29.77,WSW,247,0.0,0.0,74,0.00,,,0.00,WeatherCatV1.23B16,2013-11-23 21:46:00,
2013-11-23 12:51:00,25.7,18.5,29.77,WSW,247,0.0,0.0,74,0.00,,,0.00,WeatherCatV1.23B16,2013-11-23 21:51:00,
2013-11-23 12:56:00,25.9,18.7,29.77,WSW,247,0.0,0.0,74,0.00,,,0.00,WeatherCatV1.23B16,2013-11-23 21:56:00,
2013-11-23 13:01:00,26.1,18.5,29.78,WSW,247,0.0,0.0,73,0.00,,,0.00,WeatherCatV1.23B16,2013-11-23 22:01:00,
2013-11-23 13:06:00,26.2,18.7,29.78,WSW,247,0.0,0.0,74,0.00,,,0.00,WeatherCatV1.23B16,2013-11-23 22:06:00,
2013-11-23 13:11:00,26.2,18.7,29.78,WSW,247,0.0,0.0,73,0.00,,,0.00,WeatherCatV1.23B16,2013-11-23 22:11:00,
2013-11-23 13:16:00,26.4,18.9,29.78,WSW,247,0.0,0.0,73,0.00,,,0.00,WeatherCatV1.23B16,2013-11-23 22:16:00,
2013-11-23 13:21:00,26.4,18.9,29.78,WSW,247,0.0,0.0,73,0.00,,,0.00,WeatherCatV1.23B16,2013-11-23 22:21:00,
2013-11-23 13:26:00,26.4,18.9,29.78,WSW,247,0.0,0.0,73,0.00,,,0.00,WeatherCatV1.23B16,2013-11-23 22:26:00,
2013-11-23 13:31:00,26.8,19.2,29.78,WSW,247,0.0,0.0,73,0.00,,,0.00,WeatherCatV1.23B16,2013-11-23 22:31:00,
2013-11-23 13:36:00,26.8,18.3,29.79,WSW,247,2.2,2.2,70,0.00,,,0.00,WeatherCatV1.23B16,2013-11-23 22:36:00,
2013-11-23 13:41:00,27.0,18.5,29.80,WSW,247,0.0,0.0,70,0.00,,,0.00,WeatherCatV1.23B16,2013-11-23 22:41:00,
2013-11-23 13:46:00,27.0,18.5,29.80,WSW,247,0.0,0.0,70,0.00,,,0.00,WeatherCatV1.23B16,2013-11-23 22:46:00,
2013-11-23 13:51:00,26.8,18.3,29.80,WSW,247,0.0,0.0,70,0.00,,,0.00,WeatherCatV1.23B16,2013-11-23 22:51:00,
2013-11-23 13:56:00,26.8,18.0,29.80,WSW,247,0.0,0.0,69,0.00,,,0.00,WeatherCatV1.23B16,2013-11-23 22:56:00,
2013-11-23 14:01:00,26.8,18.0,29.81,WSW,247,0.0,0.0,69,0.00,,,0.00,WeatherCatV1.23B16,2013-11-23 23:01:00,
2013-11-23 14:06:00,26.8,18.0,29.81,WSW,247,0.0,0.0,69,0.00,,,0.00,WeatherCatV1.23B16,2013-11-23 23:06:00,
2013-11-23 14:11:00,26.8,18.0,29.81,WSW,247,0.0,0.0,69,0.00,,,0.00,WeatherCatV1.23B16,2013-11-23 23:11:00,
2013-11-23 14:16:00,26.6,17.8,29.81,WSW,247,0.0,0.0,69,0.00,,,0.00,WeatherCatV1.23B16,2013-11-23 23:16:00,
2013-11-23 14:21:00,26.4,18.0,29.81,WSW,247,0.0,0.0,70,0.00,,,0.00,WeatherCatV1.23B16,2013-11-23 23:21:00,
2013-11-23 14:26:00,26.4,18.0,29.81,WSW,247,0.0,0.0,70,0.00,,,0.00,WeatherCatV1.23B16,2013-11-23 23:26:00,
2013-11-23 14:31:00,26.4,17.6,29.81,WSW,247,0.0,0.0,69,0.00,,,0.00,WeatherCatV1.23B16,2013-11-23 23:31:00,
2013-11-23 14:36:00,26.2,17.1,29.81,WSW,247,2.2,2.2,68,0.00,,,0.00,WeatherCatV1.23B16,2013-11-23 23:36:00,
2013-11-23 14:41:00,26.4,17.6,29.81,WSW,247,0.0,2.7,69,0.00,,,0.00,WeatherCatV1.23B16,2013-11-23 23:41:00,
2013-11-23 14:46:00,26.4,17.6,29.81,WSW,247,0.0,0.0,69,0.00,,,0.00,WeatherCatV1.23B16,2013-11-23 23:46:00,
2013-11-23 14:51:00,26.4,17.6,29.82,WSW,247,0.0,0.0,69,0.00,,,0.00,WeatherCatV1.23B16,2013-11-23 23:51:00,
2013-11-23 14:56:00,26.2,17.8,29.82,WSW,247,0.0,0.0,70,0.00,,,0.00,WeatherCatV1.23B16,2013-11-23 23:56:00,
2013-11-23 15:01:00,26.4,18.0,29.82,WSW,247,0.0,0.0,70,0.00,,,0.00,WeatherCatV1.23B16,2013-11-24 00:01:00,
2013-11-23 15:06:00,26.4,18.0,29.82,WSW,247,0.0,0.0,70,0.00,,,0.00,WeatherCatV1.23B16,2013-11-24 00:06:00,
2013-11-23 15:11:00,26.4,18.0,29.82,WSW,247,3.4,3.4,70,0.00,,,0.00,WeatherCatV1.23B16,2013-11-24 00:11:00,
2013-11-23 15:16:00,26.4,18.0,29.81,WSW,247,2.7,2.7,70,0.00,,,0.00,WeatherCatV1.23B16,2013-11-24 00:16:00,
2013-11-23 15:21:00,26.4,17.6,29.82,WSW,247,0.0,0.0,69,0.00,,,0.00,WeatherCatV1.23B16,2013-11-24 00:21:00,
2013-11-23 15:26:00,26.4,17.6,29.82,WSW,247,5.6,5.6,69,0.00,,,0.00,WeatherCatV1.23B16,2013-11-24 00:26:00,
2013-11-23 15:31:00,26.4,17.6,29.82,WSW,247,0.0,0.0,69,0.00,,,0.00,WeatherCatV1.23B16,2013-11-24 00:31:00,
2013-11-23 15:36:00,26.4,17.6,29.82,WSW,247,0.0,0.0,69,0.00,,,0.00,WeatherCatV1.23B16,2013-11-24 00:36:00,
2013-11-23 15:41:00,26.4,17.6,29.82,NNW,337,0.4,6.3,69,0.00,,,0.00,WeatherCatV1.23B16,2013-11-24 00:41:00,
2013-11-23 15:46:00,26.2,17.4,29.82,WSW,247,4.9,4.9,69,0.00,,,0.00,WeatherCatV1.23B16,2013-11-24 00:46:00,
2013-11-23 15:51:00,26.4,17.2,29.83,WSW,247,0.0,3.4,68,0.00,,,0.00,WeatherCatV1.23B16,2013-11-24 00:51:00,
2013-11-23 15:56:00,26.4,17.2,29.83,WSW,247,0.0,0.0,68,0.00,,,0.00,WeatherCatV1.23B16,2013-11-24 00:56:00,
2013-11-23 16:01:00,26.4,17.2,29.83,WSW,247,0.0,0.0,68,0.00,,,0.00,WeatherCatV1.23B16,2013-11-24 01:01:00,
2013-11-23 16:06:00,26.4,17.2,29.84,WSW,247,0.0,0.0,69,0.00,,,0.00,WeatherCatV1.23B16,2013-11-24 01:06:00,
2013-11-23 16:11:00,26.2,17.1,29.84,WSW,247,0.0,2.2,68,0.00,,,0.00,WeatherCatV1.23B16,2013-11-24 01:11:00,
2013-11-23 16:16:00,26.2,17.1,29.84,WSW,247,0.7,0.7,68,0.00,,,0.00,WeatherCatV1.23B16,2013-11-24 01:16:00,
2013-11-23 16:21:00,26.2,17.1,29.84,WSW,247,0.0,0.0,68,0.00,,,0.00,WeatherCatV1.23B16,2013-11-24 01:21:00,
2013-11-23 16:26:00,25.9,17.1,29.84,WSW,247,3.8,3.8,69,0.00,,,0.00,WeatherCatV1.23B16,2013-11-24 01:26:00,
2013-11-23 16:31:00,25.9,17.1,29.85,WSW,247,0.0,0.0,69,0.00,,,0.00,WeatherCatV1.23B16,2013-11-24 01:31:00,
2013-11-23 16:36:00,25.7,16.9,29.85,WSW,247,0.0,0.0,69,0.00,,,0.00,WeatherCatV1.23B16,2013-11-24 01:36:00,
2013-11-23 16:41:00,25.5,16.7,29.85,WSW,247,0.0,0.0,69,0.00,,,0.00,WeatherCatV1.23B16,2013-11-24 01:41:00,
2013-11-23 16:46:00,25.7,16.9,29.85,WSW,247,0.0,0.0,69,0.00,,,0.00,WeatherCatV1.23B16,2013-11-24 01:46:00,
2013-11-23 16:51:00,25.7,16.9,29.85,WSW,247,0.0,0.0,69,0.00,,,0.00,WeatherCatV1.23B16,2013-11-24 01:51:00,
2013-11-23 16:56:00,25.9,17.1,29.85,WSW,247,1.6,2.0,69,0.00,,,0.00,WeatherCatV1.23B16,2013-11-24 01:56:00,
2013-11-23 17:01:00,26.1,17.2,29.85,WSW,247,0.0,0.0,69,0.00,,,0.00,WeatherCatV1.23B16,2013-11-24 02:01:00,
2013-11-23 17:06:00,26.1,17.2,29.85,WSW,247,0.0,0.0,69,0.00,,,0.00,WeatherCatV1.23B16,2013-11-24 02:06:00,
2013-11-23 17:11:00,26.1,17.2,29.85,WSW,247,0.0,3.1,69,0.00,,,0.00,WeatherCatV1.23B16,2013-11-24 02:11:00,
2013-11-23 17:16:00,25.9,17.1,29.86,WSW,247,0.0,0.0,69,0.00,,,0.00,WeatherCatV1.23B16,2013-11-24 02:16:00,
2013-11-23 17:21:00,25.7,16.9,29.86,WSW,247,0.0,1.1,69,0.00,,,0.00,WeatherCatV1.23B16,2013-11-24 02:21:00,
2013-11-23 17:26:00,25.7,16.9,29.86,WSW,247,0.0,2.9,69,0.00,,,0.00,WeatherCatV1.23B16,2013-11-24 02:26:00,
2013-11-23 17:31:00,25.7,17.2,29.87,WSW,247,0.0,0.0,70,0.00,,,0.00,WeatherCatV1.23B16,2013-11-24 02:31:00,
2013-11-23 17:36:00,25.7,17.2,29.87,WSW,247,0.0,0.0,70,0.00,,,0.00,WeatherCatV1.23B16,2013-11-24 02:36:00,
2013-11-23 17:41:00,25.9,17.4,29.87,WSW,247,0.0,0.0,70,0.00,,,0.00,WeatherCatV1.23B16,2013-11-24 02:41:00,
2013-11-23 17:46:00,25.9,17.4,29.87,WSW,247,2.9,2.9,70,0.00,,,0.00,WeatherCatV1.23B16,2013-11-24 02:46:00,
2013-11-23 17:51:00,26.1,17.6,29.87,WSW,247,2.5,2.5,70,0.00,,,0.00,WeatherCatV1.23B16,2013-11-24 02:51:00,
2013-11-23 17:56:00,26.2,17.8,29.87,WSW,247,0.0,4.0,70,0.00,,,0.00,WeatherCatV1.23B16,2013-11-24 02:56:00,
2013-11-23 18:01:00,26.4,18.0,29.87,WSW,247,0.0,0.0,70,0.00,,,0.00,WeatherCatV1.23B16,2013-11-24 03:01:00,
2013-11-23 18:06:00,26.4,18.0,29.87,WSW,247,0.0,0.0,70,0.00,,,0.00,WeatherCatV1.23B16,2013-11-24 03:06:00,
2013-11-23 18:11:00,26.8,18.3,29.87,WSW,247,0.0,0.0,70,0.00,,,0.00,WeatherCatV1.23B16,2013-11-24 03:11:00,
2013-11-23 18:16:00,26.8,18.3,29.88,WSW,247,0.0,0.0,70,0.00,,,0.00,WeatherCatV1.23B16,2013-11-24 03:16:00,
2013-11-23 18:21:00,27.0,18.5,29.88,WSW,247,0.0,5.8,70,0.00,,,0.00,WeatherCatV1.23B16,2013-11-24 03:21:00,
2013-11-23 18:26:00,27.1,18.3,29.88,WSW,247,0.0,0.0,69,0.00,,,0.00,WeatherCatV1.23B16,2013-11-24 03:26:00,
2013-11-23 18:31:00,27.1,18.7,29.88,WSW,247,0.0,0.0,70,0.00,,,0.00,WeatherCatV1.23B16,2013-11-24 03:31:00,
2013-11-23 18:36:00,27.1,18.7,29.88,WSW,247,0.0,3.4,70,0.00,,,0.00,WeatherCatV1.23B16,2013-11-24 03:36:00,
2013-11-23 18:41:00,27.1,18.7,29.88,WSW,247,0.0,0.0,70,0.00,,,0.00,WeatherCatV1.23B16,2013-11-24 03:41:00,
2013-11-23 18:46:00,27.0,18.5,29.88,WSW,247,4.5,4.5,70,0.00,,,0.00,WeatherCatV1.23B16,2013-11-24 03:46:00,
2013-11-23 18:51:00,26.8,18.3,29.88,WSW,247,0.0,0.0,70,0.00,,,0.00,WeatherCatV1.23B16,2013-11-24 03:51:00,
2013-11-23 18:56:00,26.8,18.3,29.88,WSW,247,4.2,4.2,70,0.00,,,0.00,WeatherCatV1.23B16,2013-11-24 03:56:00,
2013-11-23 19:01:00,27.0,18.5,29.88,WSW,247,0.0,0.0,70,0.00,,,0.00,WeatherCatV1.23B16,2013-11-24 04:01:00,
2013-11-23 19:06:00,27.1,19.0,29.88,WSW,247,0.0,0.0,71,0.00,,,0.00,WeatherCatV1.23B16,2013-11-24 04:06:00,
2013-11-23 19:11:00,27.1,19.0,29.88,WSW,247,0.0,0.0,71,0.00,,,0.00,WeatherCatV1.23B16,2013-11-24 04:11:00,
2013-11-23 19:16:00,27.3,19.2,29.89,WSW,247,5.1,5.1,71,0.00,,,0.00,WeatherCatV1.23B16,2013-11-24 04:16:00,
2013-11-23 19:21:00,27.7,19.0,29.89,WSW,247,0.0,0.0,70,0.00,,,0.00,WeatherCatV1.23B16,2013-11-24 04:21:00,
2013-11-23 19:26:00,27.7,19.2,29.88,WSW,247,0.0,0.0,70,0.00,,,0.00,WeatherCatV1.23B16,2013-11-24 04:26:00,
2013-11-23 19:31:00,28.0,19.6,29.89,WSW,247,9.8,9.8,70,0.00,,,0.00,WeatherCatV1.23B16,2013-11-24 04:31:00,
2013-11-23 19:36:00,28.0,19.2,29.89,WSW,247,0.0,4.9,69,0.00,,,0.00,WeatherCatV1.23B16,2013-11-24 04:36:00,
2013-11-23 19:41:00,28.2,19.4,29.89,WSW,247,3.4,7.6,69,0.00,,,0.00,WeatherCatV1.23B16,2013-11-24 04:41:00,
2013-11-23 19:46:00,28.2,19.4,29.89,WSW,247,3.4,4.0,69,0.00,,,0.00,WeatherCatV1.23B16,2013-11-24 04:46:00,
2013-11-23 19:51:00,28.0,19.2,29.89,WSW,247,0.0,7.6,69,0.00,,,0.00,WeatherCatV1.23B16,2013-11-24 04:51:00,
2013-11-23 19:56:00,27.7,18.9,29.89,WSW,247,2.9,2.9,69,0.00,,,0.00,WeatherCatV1.23B16,2013-11-24 04:56:00,
2013-11-23 20:01:00,27.5,18.7,29.89,WSW,247,0.0,0.0,69,0.00,,,0.00,WeatherCatV1.23B16,2013-11-24 05:01:00,
2013-11-23 20:06:00,27.3,18.3,29.89,WSW,247,0.0,0.0,69,0.00,,,0.00,WeatherCatV1.23B16,2013-11-24 05:06:00,
2013-11-23 20:11:00,27.1,18.7,29.90,WSW,247,0.0,0.0,70,0.02,,,0.02,WeatherCatV1.23B16,2013-11-24 05:11:00,
2013-11-23 20:16:00,26.8,18.3,29.90,WSW,247,0.0,0.0,70,0.02,,,0.02,WeatherCatV1.23B16,2013-11-24 05:16:00,
2013-11-23 20:21:00,26.8,18.3,29.90,WSW,247,0.0,0.0,70,0.02,,,0.02,WeatherCatV1.23B16,2013-11-24 05:21:00,
2013-11-23 20:26:00,26.8,18.6,29.90,WSW,247,0.0,0.0,71,0.02,,,0.02,WeatherCatV1.23B16,2013-11-24 05:26:00,
2013-11-23 20:31:00,27.0,18.8,29.90,WSW,247,0.0,0.0,71,0.02,,,0.02,WeatherCatV1.23B16,2013-11-24 05:31:00,
2013-11-23 20:36:00,27.1,19.0,29.90,WSW,247,0.0,0.0,71,0.02,,,0.02,WeatherCatV1.23B16,2013-11-24 05:36:00,
2013-11-23 20:41:00,27.1,19.0,29.91,WSW,247,0.0,0.0,71,0.02,,,0.02,WeatherCatV1.23B16,2013-11-24 05:41:00,
2013-11-23 20:46:00,27.1,19.0,29.90,WSW,247,0.0,0.0,71,0.02,,,0.02,WeatherCatV1.23B16,2013-11-24 05:46:00,
2013-11-23 20:51:00,27.1,18.7,29.91,WSW,247,0.0,0.0,70,0.02,,,0.02,WeatherCatV1.23B16,2013-11-24 05:51:00,
2013-11-23 20:56:00,27.1,18.7,29.91,WSW,247,0.0,0.0,70,0.02,,,0.02,WeatherCatV1.23B16,2013-11-24 05:56:00,
2013-11-23 21:01:00,27.1,18.7,29.91,WSW,247,0.0,0.0,70,0.02,,,0.02,WeatherCatV1.23B16,2013-11-24 06:01:00,
2013-11-23 21:06:00,26.8,18.3,29.91,WSW,247,0.0,0.0,70,0.00,,,0.02,WeatherCatV1.23B16,2013-11-24 06:06:00,
2013-11-23 21:11:00,26.8,18.3,29.91,WSW,247,0.0,0.0,70,0.00,,,0.02,WeatherCatV1.23B16,2013-11-24 06:11:00,
2013-11-23 21:16:00,26.8,18.3,29.92,WSW,247,0.0,0.0,70,0.00,,,0.02,WeatherCatV1.23B16,2013-11-24 06:16:00,
2013-11-23 21:21:00,26.6,18.5,29.92,WSW,247,0.0,0.0,71,0.00,,,0.02,WeatherCatV1.23B16,2013-11-24 06:21:00,
2013-11-23 21:26:00,26.4,18.3,29.91,WSW,247,0.0,0.0,71,0.00,,,0.02,WeatherCatV1.23B16,2013-11-24 06:26:00,
2013-11-23 21:31:00,26.2,18.1,29.92,WSW,247,0.0,0.0,71,0.00,,,0.02,WeatherCatV1.23B16,2013-11-24 06:31:00,
2013-11-23 21:36:00,26.2,18.1,29.92,WSW,247,0.0,0.0,71,0.00,,,0.02,WeatherCatV1.23B16,2013-11-24 06:36:00,
2013-11-23 21:41:00,26.2,18.1,29.92,WSW,247,0.0,0.0,71,0.00,,,0.02,WeatherCatV1.23B16,2013-11-24 06:41:00,
2013-11-23 21:46:00,26.2,18.1,29.92,WSW,247,0.0,0.0,71,0.00,,,0.02,WeatherCatV1.23B16,2013-11-24 06:46:00,
2013-11-23 21:51:00,26.2,18.1,29.93,WSW,247,0.0,0.0,71,0.00,,,0.02,WeatherCatV1.23B16,2013-11-24 06:51:00,
2013-11-23 21:56:00,26.1,17.9,29.92,WSW,247,0.0,0.0,71,0.00,,,0.02,WeatherCatV1.23B16,2013-11-24 06:56:00,
2013-11-23 22:01:00,25.9,18.0,29.92,WSW,247,0.0,0.0,72,0.00,,,0.02,WeatherCatV1.23B16,2013-11-24 07:01:00,
2013-11-23 22:06:00,25.9,18.0,29.92,NNW,337,1.1,1.1,72,0.00,,,0.02,WeatherCatV1.23B16,2013-11-24 07:06:00,
2013-11-23 22:11:00,25.9,18.0,29.93,WSW,247,0.0,0.0,72,0.00,,,0.02,WeatherCatV1.23B16,2013-11-24 07:11:00,
2013-11-23 22:16:00,25.9,18.0,29.92,WSW,247,0.0,0.0,72,0.00,,,0.02,WeatherCatV1.23B16,2013-11-24 07:16:00,
2013-11-23 22:21:00,25.9,18.0,29.93,WSW,247,0.0,0.0,72,0.00,,,0.02,WeatherCatV1.23B16,2013-11-24 07:21:00,
2013-11-23 22:26:00,25.9,18.0,29.93,WSW,247,0.0,0.0,72,0.00,,,0.02,WeatherCatV1.23B16,2013-11-24 07:26:00,
2013-11-23 22:31:00,25.9,18.0,29.93,WSW,247,0.0,0.0,72,0.00,,,0.02,WeatherCatV1.23B16,2013-11-24 07:31:00,
2013-11-23 22:36:00,25.9,18.0,29.93,WSW,247,0.0,0.0,72,0.00,,,0.02,WeatherCatV1.23B16,2013-11-24 07:36:00,
2013-11-23 22:41:00,26.1,18.5,29.93,WSW,247,0.0,0.4,73,0.00,,,0.02,WeatherCatV1.23B16,2013-11-24 07:41:00,
2013-11-23 22:46:00,26.2,18.7,29.93,WSW,247,0.0,0.0,73,0.00,,,0.02,WeatherCatV1.23B16,2013-11-24 07:46:00,
2013-11-23 22:51:00,26.4,18.9,29.93,WSW,247,0.0,0.0,73,0.00,,,0.02,WeatherCatV1.23B16,2013-11-24 07:51:00,
2013-11-23 22:56:00,26.6,19.1,29.93,WSW,247,0.0,0.0,73,0.00,,,0.02,WeatherCatV1.23B16,2013-11-24 07:56:00,
2013-11-23 23:01:00,26.6,19.1,29.93,WSW,247,0.0,0.0,73,0.00,,,0.02,WeatherCatV1.23B16,2013-11-24 08:01:00,
2013-11-23 23:06:00,27.1,19.3,29.94,WSW,247,0.0,0.0,72,0.00,,,0.02,WeatherCatV1.23B16,2013-11-24 08:06:00,
2013-11-23 23:11:00,26.8,18.9,29.93,WSW,247,0.0,0.0,72,0.00,,,0.02,WeatherCatV1.23B16,2013-11-24 08:11:00,
2013-11-23 23:16:00,26.8,18.9,29.94,WSW,247,0.0,0.0,72,0.00,,,0.02,WeatherCatV1.23B16,2013-11-24 08:16:00,
2013-11-23 23:21:00,26.8,19.2,29.94,WSW,247,0.0,0.0,73,0.00,,,0.02,WeatherCatV1.23B16,2013-11-24 08:21:00,
2013-11-23 23:26:00,26.8,19.2,29.94,WSW,247,0.0,0.0,73,0.00,,,0.02,WeatherCatV1.23B16,2013-11-24 08:26:00,
2013-11-23 23:31:00,26.6,19.1,29.94,WSW,247,0.0,0.0,73,0.00,,,0.02,WeatherCatV1.23B16,2013-11-24 08:31:00,
2013-11-23 23:36:00,26.4,18.9,29.95,WSW,247,0.0,0.0,73,0.00,,,0.02,WeatherCatV1.23B16,2013-11-24 08:36:00,
2013-11-23 23:41:00,26.6,19.1,29.94,WSW,247,0.0,0.0,73,0.00,,,0.02,WeatherCatV1.23B16,2013-11-24 08:41:00,
2013-11-23 23:46:00,26.8,19.2,29.95,WSW,247,0.0,0.0,73,0.00,,,0.02,WeatherCatV1.23B16,2013-11-24 08:46:00,
2013-11-23 23:51:00,27.0,19.4,29.95,WSW,247,0.0,0.0,73,0.00,,,0.02,WeatherCatV1.23B16,2013-11-24 08:51:00,
2013-11-23 23:56:00,27.0,19.4,29.95,WSW,247,8.1,8.1,73,0.00,,,0.02,WeatherCatV1.23B16,2013-11-24 08:56:00,